Time;durP1;ratioP1;P1;durP2;ratioP2;P2;SDS_P1;SDS_P2;PMS_P1;PMS_P2;Temp;Humidity;BMP_temperature;BMP_pressure;BME280_temperature;BME280_humidity;BME280_pressure;Samples;Min_cycle;Max_cycle;Signal;HPM_P1;HPM_P2
2021/09/29 00:00:19;;;;;;;3.20;2.10;;;14.80;95.10;;;;;;5073053;28;20029;-77
2021/09/29 00:02:44;;;;;;;8.40;2.40;;;14.80;95.30;;;;;;5073489;28;20020;-76
2021/09/29 00:05:10;;;;;;;6.45;3.00;;;14.80;95.30;;;;;;5073659;28;20481;-77
2021/09/29 00:07:36;;;;;;;2.90;2.05;;;14.70;95.50;;;;;;5072094;28;20473;-77
2021/09/29 00:10:03;;;;;;;5.03;2.47;;;14.60;95.60;;;;;;5072981;28;20462;-77
2021/09/29 00:12:28;;;;;;;2.90;2.30;;;14.60;95.60;;;;;;5072421;28;20028;-76
2021/09/29 00:14:54;;;;;;;4.05;2.47;;;14.60;95.60;;;;;;5071880;28;20223;-77
2021/09/29 00:17:20;;;;;;;4.32;2.30;;;14.60;95.80;;;;;;5072771;28;20052;-77
2021/09/29 00:19:45;;;;;;;3.60;2.60;;;14.60;96.00;;;;;;5072335;28;20066;-76
2021/09/29 00:22:11;;;;;;;4.03;2.35;;;14.60;95.90;;;;;;5073558;28;20021;-76
2021/09/29 00:24:36;;;;;;;3.00;2.10;;;14.60;95.80;;;;;;5072096;28;20456;-78
2021/09/29 00:27:02;;;;;;;5.72;2.97;;;14.60;95.80;;;;;;5072497;28;20035;-76
2021/09/29 00:29:28;;;;;;;6.60;2.70;;;14.70;95.70;;;;;;5073355;28;20029;-76
2021/09/29 00:31:54;;;;;;;6.55;2.90;;;14.80;95.60;;;;;;5072084;28;20035;-77
2021/09/29 00:34:32;;;;;;;4.30;2.40;;;14.80;95.40;;;;;;5073865;28;20358;-77
2021/09/29 00:36:58;;;;;;;5.03;2.67;;;14.90;95.30;;;;;;5071931;28;20029;-77
2021/09/29 00:39:24;;;;;;;8.43;2.83;;;14.80;95.20;;;;;;5072648;28;20035;-76
2021/09/29 00:41:50;;;;;;;4.20;2.55;;;14.80;95.30;;;;;;5071981;28;20458;-76
2021/09/29 00:44:16;;;;;;;7.40;2.60;;;14.90;95.40;;;;;;5072568;28;20036;-77
2021/09/29 00:46:42;;;;;;;4.97;2.85;;;14.90;95.30;;;;;;5071866;28;20066;-77
2021/09/29 00:49:08;;;;;;;5.72;2.80;;;14.80;95.20;;;;;;5073607;28;20519;-76
2021/09/29 00:51:34;;;;;;;4.00;2.70;;;14.90;95.30;;;;;;5072542;28;20052;-77
2021/09/29 00:54:01;;;;;;;6.22;3.22;;;14.90;95.20;;;;;;5072254;28;20028;-77
2021/09/29 00:56:27;;;;;;;3.05;2.47;;;14.90;95.20;;;;;;5072371;28;20140;-77
2021/09/29 00:58:52;;;;;;;6.65;3.05;;;14.90;95.20;;;;;;5071845;28;20530;-76
2021/09/29 01:01:18;;;;;;;5.15;2.90;;;14.90;95.30;;;;;;5072707;28;20032;-76
2021/09/29 01:03:46;;;;;;;4.75;2.88;;;14.90;95.40;;;;;;5071739;28;20051;-77
2021/09/29 01:06:25;;;;;;;4.85;3.30;;;14.90;95.60;;;;;;5072214;28;20422;-76
2021/09/29 01:08:57;;;;;;;5.05;3.28;;;14.90;95.70;;;;;;5072994;28;20064;-77
2021/09/29 01:11:29;;;;;;;;;;;14.90;95.60;;;;;;5073755;28;20063;-76
2021/09/29 01:14:14;;;;;;;;;;;14.90;95.80;;;;;;5073345;28;19912;-77
2021/09/29 01:16:40;;;;;;;4.15;2.92;;;14.90;96.10;;;;;;5088479;28;19912;-76
2021/09/29 01:19:36;;;;;;;6.53;3.70;;;14.90;95.90;;;;;;5073932;28;20029;-77
2021/09/29 01:22:16;;;;;;;6.70;3.47;;;14.90;96.10;;;;;;5094834;28;20039;-77
2021/09/29 01:24:56;;;;;;;6.70;3.22;;;14.80;96.10;;;;;;5075490;28;20033;-77
2021/09/29 01:27:23;;;;;;;5.70;3.47;;;14.80;96.30;;;;;;5076149;28;20029;-76
2021/09/29 01:29:51;;;;;;;6.60;3.08;;;14.80;96.20;;;;;;5076785;28;20048;-77
2021/09/29 01:32:19;;;;;;;4.38;3.35;;;14.80;96.30;;;;;;5076850;28;20101;-76
2021/09/29 01:34:47;;;;;;;5.55;3.60;;;14.80;96.40;;;;;;5075184;28;20082;-77
2021/09/29 01:37:12;;;;;;;9.48;3.90;;;14.70;96.50;;;;;;5075305;28;20035;-77
2021/09/29 01:39:39;;;;;;;5.82;3.20;;;14.80;96.50;;;;;;5075626;28;20021;-76
2021/09/29 01:42:04;;;;;;;5.38;3.22;;;14.70;96.50;;;;;;5075205;28;20024;-77
2021/09/29 01:44:31;;;;;;;6.18;3.47;;;14.80;96.50;;;;;;5076577;28;20493;-77
2021/09/29 01:46:58;;;;;;;4.95;3.47;;;14.80;96.40;;;;;;5075161;28;20469;-76
2021/09/29 01:49:34;;;;;;;5.70;3.80;;;14.80;96.50;;;;;;5075893;28;20024;-76
2021/09/29 01:52:01;;;;;;;5.93;3.38;;;14.70;96.50;;;;;;5075036;28;20028;-77
2021/09/29 01:54:30;;;;;;;5.50;3.20;;;14.70;96.50;;;;;;5075484;28;20033;-77
2021/09/29 01:56:55;;;;;;;7.10;4.22;;;14.80;96.60;;;;;;5076225;28;20056;-77
2021/09/29 01:59:25;;;;;;;5.55;3.60;;;14.80;96.50;;;;;;5075685;28;20025;-77
2021/09/29 02:01:53;;;;;;;6.80;4.28;;;14.70;96.60;;;;;;5074981;28;20033;-77
2021/09/29 02:04:19;;;;;;;9.52;4.15;;;14.70;96.70;;;;;;5075188;28;20029;-77
2021/09/29 02:06:50;;;;;;;8.68;4.38;;;14.70;96.70;;;;;;5076040;28;20032;-75
2021/09/29 02:09:16;;;;;;;7.43;4.20;;;14.70;96.70;;;;;;5075342;28;20051;-76
2021/09/29 02:11:42;;;;;;;8.90;4.15;;;14.60;96.60;;;;;;5074946;28;20067;-79
2021/09/29 02:14:09;;;;;;;9.32;4.38;;;14.60;96.70;;;;;;5074766;28;20021;-77
2021/09/29 02:16:34;;;;;;;9.02;4.53;;;14.60;96.70;;;;;;5076237;28;20068;-76
2021/09/29 02:19:00;;;;;;;6.15;4.35;;;14.60;96.70;;;;;;5091351;28;20449;-77
2021/09/29 02:21:26;;;;;;;10.85;4.30;;;14.60;96.70;;;;;;5074820;28;20035;-76
2021/09/29 02:23:51;;;;;;;9.73;4.32;;;14.50;96.70;;;;;;5074412;28;20028;-77
2021/09/29 02:26:17;;;;;;;10.23;4.45;;;14.50;96.70;;;;;;5074764;28;20431;-76
2021/09/29 02:28:43;;;;;;;6.05;3.97;;;14.50;96.80;;;;;;5074482;28;20025;-80
2021/09/29 02:31:09;;;;;;;6.68;3.83;;;14.50;96.80;;;;;;5074428;28;20035;-77
2021/09/29 02:33:34;;;;;;;8.30;4.10;;;14.50;96.80;;;;;;5074523;28;20119;-77
2021/09/29 02:36:00;;;;;;;5.97;4.15;;;14.50;96.80;;;;;;5074328;28;20127;-76
2021/09/29 02:38:25;;;;;;;6.65;4.25;;;14.50;96.80;;;;;;5074972;28;20441;-77
2021/09/29 02:40:51;;;;;;;9.98;4.57;;;14.50;96.70;;;;;;5074020;28;20032;-77
2021/09/29 02:43:17;;;;;;;7.55;4.03;;;14.50;96.70;;;;;;5074786;28;20496;-77
2021/09/29 02:45:44;;;;;;;9.93;3.88;;;14.50;96.60;;;;;;5074498;28;20029;-77
2021/09/29 02:48:13;;;;;;;6.40;3.78;;;14.40;96.60;;;;;;5075485;28;20056;-75
2021/09/29 02:50:39;;;;;;;7.32;4.10;;;14.40;96.50;;;;;;5075417;28;20092;-76
2021/09/29 02:53:05;;;;;;;4.97;3.63;;;14.40;96.50;;;;;;5074982;28;20028;-77
2021/09/29 02:55:30;;;;;;;9.18;3.83;;;14.40;96.40;;;;;;5074133;28;20024;-77
2021/09/29 02:57:56;;;;;;;6.97;3.70;;;14.50;96.30;;;;;;5073719;28;20044;-77
2021/09/29 03:00:22;;;;;;;8.95;3.88;;;14.40;96.20;;;;;;5074481;28;20024;-77
2021/09/29 03:02:47;;;;;;;5.93;3.72;;;14.40;96.20;;;;;;5073691;28;20029;-76
2021/09/29 03:05:13;;;;;;;7.68;4.00;;;14.30;96.10;;;;;;5073930;28;20485;-77
2021/09/29 03:07:38;;;;;;;5.97;3.92;;;14.40;96.00;;;;;;5074050;28;20032;-76
2021/09/29 03:10:05;;;;;;;9.35;4.07;;;14.40;95.90;;;;;;5073761;28;20340;-76
2021/09/29 03:12:31;;;;;;;7.05;4.03;;;14.30;95.80;;;;;;5074185;28;20025;-77
2021/09/29 03:14:57;;;;;;;5.07;3.92;;;14.40;95.70;;;;;;5074743;28;20036;-77
2021/09/29 03:17:22;;;;;;;8.70;4.15;;;14.40;95.60;;;;;;5073792;28;20039;-76
2021/09/29 03:19:48;;;;;;;11.00;4.22;;;14.40;95.50;;;;;;5073497;28;20056;-77
2021/09/29 03:22:14;;;;;;;8.55;4.50;;;14.40;95.80;;;;;;5074239;28;20381;-77
2021/09/29 03:24:40;;;;;;;6.93;3.45;;;14.40;95.70;;;;;;5073823;28;20029;-77
2021/09/29 03:27:06;;;;;;;6.65;3.70;;;14.40;95.80;;;;;;5073239;28;20807;-77
2021/09/29 03:29:32;;;;;;;10.38;4.10;;;14.40;95.70;;;;;;5073819;28;20119;-77
2021/09/29 03:31:57;;;;;;;6.40;3.83;;;14.40;95.60;;;;;;5074015;28;20543;-77
2021/09/29 03:34:23;;;;;;;6.43;3.60;;;14.50;95.70;;;;;;5073352;28;20070;-76
2021/09/29 03:36:48;;;;;;;7.75;4.15;;;14.50;95.70;;;;;;5073262;28;20029;-78
2021/09/29 03:39:14;;;;;;;8.52;3.60;;;14.50;95.60;;;;;;5074515;28;20025;-76
2021/09/29 03:41:40;;;;;;;6.30;3.83;;;14.50;95.70;;;;;;5072498;28;20377;-76
2021/09/29 03:44:06;;;;;;;6.90;3.55;;;14.50;95.80;;;;;;5072953;28;20033;-77
2021/09/29 03:46:31;;;;;;;7.45;3.60;;;14.50;95.80;;;;;;5073433;28;20486;-77
2021/09/29 03:48:57;;;;;;;7.25;3.95;;;14.50;95.80;;;;;;5072852;28;20541;-77
2021/09/29 03:51:23;;;;;;;6.63;3.67;;;14.40;96.20;;;;;;5074648;28;20026;-77
2021/09/29 03:53:48;;;;;;;8.80;3.35;;;14.40;96.10;;;;;;5072759;28;20021;-78
2021/09/29 03:56:14;;;;;;;6.57;3.58;;;14.40;96.10;;;;;;5073129;28;20182;-77
2021/09/29 03:58:40;;;;;;;7.68;3.75;;;14.40;96.30;;;;;;5074151;28;20020;-76
2021/09/29 04:01:06;;;;;;;7.75;3.67;;;14.30;96.30;;;;;;5073810;28;20028;-77
2021/09/29 04:03:32;;;;;;;9.57;3.78;;;14.30;96.30;;;;;;5073186;28;20032;-77
2021/09/29 04:05:57;;;;;;;8.45;3.22;;;14.40;96.40;;;;;;5072662;28;20032;-77
2021/09/29 04:08:23;;;;;;;5.00;3.28;;;14.40;96.30;;;;;;5073933;28;20033;-77
2021/09/29 04:10:49;;;;;;;7.85;3.63;;;14.30;96.40;;;;;;5073048;28;20028;-80
2021/09/29 04:13:14;;;;;;;7.90;3.60;;;14.40;96.50;;;;;;5073968;28;20063;-77
2021/09/29 04:15:40;;;;;;;4.85;3.05;;;14.40;96.40;;;;;;5072875;28;20382;-77
2021/09/29 04:18:05;;;;;;;8.27;3.08;;;14.40;96.40;;;;;;5072410;28;20430;-77
2021/09/29 04:20:32;;;;;;;5.65;3.05;;;14.40;96.40;;;;;;5072808;28;20108;-76
2021/09/29 04:22:58;;;;;;;8.35;3.00;;;14.40;96.40;;;;;;5072206;28;20390;-77
2021/09/29 04:25:23;;;;;;;5.85;3.05;;;14.40;96.50;;;;;;5073644;28;20103;-76
2021/09/29 04:27:49;;;;;;;5.20;3.05;;;14.40;96.50;;;;;;5073751;28;20074;-77
2021/09/29 04:30:15;;;;;;;6.60;3.10;;;14.30;96.50;;;;;;5072874;28;20031;-77
2021/09/29 04:32:44;;;;;;;5.35;2.83;;;14.20;96.60;;;;;;5072518;28;20380;-77
2021/09/29 04:35:11;;;;;;;7.57;2.90;;;14.30;96.70;;;;;;5071947;28;20363;-77
2021/09/29 04:37:37;;;;;;;4.88;2.80;;;14.30;96.60;;;;;;5073152;28;20040;-77
2021/09/29 04:40:05;;;;;;;6.68;3.20;;;14.30;96.50;;;;;;5072074;28;20024;-77
2021/09/29 04:42:31;;;;;;;4.78;3.33;;;14.30;96.60;;;;;;5072675;28;20021;-77
2021/09/29 04:44:58;;;;;;;8.02;3.00;;;14.30;96.70;;;;;;5073065;28;20028;-76
2021/09/29 04:47:24;;;;;;;5.20;3.15;;;14.30;96.60;;;;;;5072385;28;20068;-77
2021/09/29 04:49:50;;;;;;;6.05;3.03;;;14.30;96.70;;;;;;5072400;28;20126;-77
2021/09/29 04:52:16;;;;;;;6.60;3.35;;;14.30;96.70;;;;;;5073377;28;20119;-76
2021/09/29 04:54:43;;;;;;;6.95;3.05;;;14.30;96.70;;;;;;5073267;28;20074;-77
2021/09/29 04:57:09;;;;;;;7.88;3.50;;;14.30;96.70;;;;;;5071638;28;20044;-77
2021/09/29 04:59:36;;;;;;;7.63;3.03;;;14.30;96.60;;;;;;5072394;28;20497;-77
2021/09/29 05:02:03;;;;;;;6.22;2.72;;;14.30;96.60;;;;;;5071691;28;20078;-77
2021/09/29 05:04:29;;;;;;;5.00;3.10;;;14.30;96.70;;;;;;5072085;28;20054;-76
2021/09/29 05:06:55;;;;;;;4.78;3.03;;;14.40;96.70;;;;;;5071395;28;20032;-77
2021/09/29 05:09:21;;;;;;;3.92;2.72;;;14.40;96.60;;;;;;5073205;28;20032;-76
2021/09/29 05:11:50;;;;;;;4.30;2.70;;;14.40;96.70;;;;;;5073071;28;20499;-76
2021/09/29 05:14:16;;;;;;;6.28;3.10;;;14.40;96.70;;;;;;5071418;28;20021;-76
2021/09/29 05:16:42;;;;;;;6.15;2.70;;;14.40;96.70;;;;;;5072042;28;20107;-76
2021/09/29 05:19:08;;;;;;;6.22;3.05;;;14.40;96.70;;;;;;5071495;28;20032;-76
2021/09/29 05:21:33;;;;;;;5.85;2.90;;;14.40;96.70;;;;;;5072010;28;20031;-76
2021/09/29 05:24:00;;;;;;;6.88;3.05;;;14.30;96.70;;;;;;5071746;28;20111;-77
2021/09/29 05:26:25;;;;;;;6.38;3.17;;;14.30;96.80;;;;;;5072203;28;20025;-77
2021/09/29 05:28:51;;;;;;;4.38;2.60;;;14.30;96.80;;;;;;5073117;28;20085;-77
2021/09/29 05:31:18;;;;;;;7.55;2.97;;;14.30;96.80;;;;;;5071441;28;20462;-76
2021/09/29 05:33:44;;;;;;;4.60;2.50;;;14.30;96.80;;;;;;5072813;28;20077;-76
2021/09/29 05:36:10;;;;;;;5.97;3.08;;;14.30;96.90;;;;;;5071494;28;20052;-77
2021/09/29 05:38:35;;;;;;;5.57;2.80;;;14.20;96.90;;;;;;5072933;28;20078;-76
2021/09/29 05:41:01;;;;;;;8.95;3.22;;;14.30;96.90;;;;;;5072599;28;20021;-77
2021/09/29 05:43:27;;;;;;;6.45;2.90;;;14.30;96.90;;;;;;5071868;28;20033;-76
2021/09/29 05:45:53;;;;;;;6.93;2.95;;;14.20;96.90;;;;;;5072791;28;20028;-76
2021/09/29 05:48:19;;;;;;;5.65;2.88;;;14.20;97.00;;;;;;5072429;28;20028;-77
2021/09/29 05:50:45;;;;;;;7.82;2.92;;;14.20;97.00;;;;;;5071981;28;20051;-76
2021/09/29 05:53:11;;;;;;;4.85;2.80;;;14.20;97.00;;;;;;5071367;28;20060;-76
2021/09/29 05:55:36;;;;;;;5.43;2.80;;;14.20;97.00;;;;;;5072530;28;20048;-76
2021/09/29 05:58:03;;;;;;;11.60;3.15;;;14.20;97.00;;;;;;5071201;28;20045;-76
2021/09/29 06:00:29;;;;;;;5.53;2.40;;;14.20;96.90;;;;;;5071597;28;20037;-76
2021/09/29 06:02:55;;;;;;;5.22;2.13;;;14.30;96.90;;;;;;5071682;28;20067;-77
2021/09/29 06:05:21;;;;;;;5.20;2.40;;;14.30;96.90;;;;;;5072603;28;20074;-76
2021/09/29 06:07:48;;;;;;;3.63;2.65;;;14.30;96.90;;;;;;5074921;28;20039;-77
2021/09/29 06:10:14;;;;;;;6.90;2.80;;;14.30;96.80;;;;;;5075712;28;20028;-77
2021/09/29 06:12:40;;;;;;;4.57;2.40;;;14.30;96.80;;;;;;5075107;28;20056;-76
2021/09/29 06:15:07;;;;;;;4.07;2.45;;;14.40;96.80;;;;;;5074688;28;20024;-77
2021/09/29 06:18:15;;;;;;;5.93;2.28;;;14.40;96.80;;;;;;5075178;28;20073;-76
2021/09/29 06:20:22;;;;;;;5.68;2.35;;;14.40;96.70;;;;;;5070192;28;20037;-76
2021/09/29 06:22:47;;;;;;;3.35;2.30;;;14.40;96.80;;;;;;5076036;28;20025;-76
2021/09/29 06:25:13;;;;;;;4.88;2.08;;;14.40;96.70;;;;;;5075509;28;20032;-76
2021/09/29 06:27:39;;;;;;;7.80;2.33;;;14.40;96.70;;;;;;5074893;28;20112;-76
2021/09/29 06:30:05;;;;;;;3.72;2.15;;;14.40;96.70;;;;;;5074351;28;20031;-77
2021/09/29 06:32:31;;;;;;;4.47;2.13;;;14.50;96.60;;;;;;5074707;28;20052;-77
2021/09/29 06:34:57;;;;;;;6.95;2.13;;;14.40;96.60;;;;;;5074399;28;20098;-77
2021/09/29 06:37:23;;;;;;;5.50;2.33;;;14.40;96.60;;;;;;5075805;28;20028;-76
2021/09/29 06:39:48;;;;;;;5.80;2.08;;;14.40;96.60;;;;;;5075624;28;20021;-76
2021/09/29 06:42:14;;;;;;;3.38;1.75;;;14.40;96.80;;;;;;5073983;28;20025;-76
2021/09/29 06:44:40;;;;;;;6.18;2.10;;;14.40;96.70;;;;;;5075186;28;20496;-76
2021/09/29 06:47:05;;;;;;;4.82;1.95;;;14.40;97.00;;;;;;5073896;28;20599;-77
2021/09/29 06:49:31;;;;;;;4.70;2.13;;;14.40;96.70;;;;;;5074476;28;20054;-77
2021/09/29 06:51:57;;;;;;;4.90;1.75;;;14.40;96.80;;;;;;5074381;28;20035;-77
2021/09/29 06:54:23;;;;;;;3.95;2.00;;;14.40;96.80;;;;;;5074992;28;20028;-77
2021/09/29 06:56:48;;;;;;;4.95;1.63;;;14.40;96.70;;;;;;5074129;28;20056;-77
2021/09/29 06:59:14;;;;;;;3.75;1.98;;;14.40;96.80;;;;;;5073951;28;20070;-76
2021/09/29 07:01:39;;;;;;;6.43;2.30;;;14.40;96.90;;;;;;5074129;28;20032;-77
2021/09/29 07:04:05;;;;;;;5.00;1.83;;;14.40;96.70;;;;;;5074928;28;20032;-77
2021/09/29 07:06:31;;;;;;;3.45;1.52;;;14.50;96.70;;;;;;5073954;28;20534;-77
2021/09/29 07:08:57;;;;;;;4.80;1.70;;;14.60;96.50;;;;;;5074345;28;20115;-76
2021/09/29 07:11:22;;;;;;;9.43;1.70;;;14.50;96.40;;;;;;5073323;28;20029;-77
2021/09/29 07:13:49;;;;;;;3.00;1.20;;;14.60;96.40;;;;;;5073872;28;20461;-76
2021/09/29 07:16:14;;;;;;;5.03;1.65;;;14.60;96.20;;;;;;5074454;28;20496;-77
2021/09/29 07:18:42;;;;;;;4.93;1.85;;;14.70;96.30;;;;;;5073904;28;20024;-77
2021/09/29 07:21:07;;;;;;;3.47;1.65;;;14.70;96.30;;;;;;5073131;28;20032;-76
2021/09/29 07:23:33;;;;;;;8.05;1.70;;;14.80;96.30;;;;;;5074813;28;20040;-76
2021/09/29 07:25:59;;;;;;;7.53;1.35;;;14.80;96.00;;;;;;5073418;28;20440;-76
2021/09/29 07:28:24;;;;;;;3.55;1.17;;;14.90;95.70;;;;;;5073297;28;20024;-77
2021/09/29 07:30:52;;;;;;;3.88;1.30;;;14.90;95.60;;;;;;5074325;28;20097;-76
2021/09/29 07:33:17;;;;;;;2.97;1.27;;;15.00;95.30;;;;;;5074335;28;20016;-77
2021/09/29 07:35:43;;;;;;;4.03;1.15;;;15.10;95.10;;;;;;5074428;28;20043;-76
2021/09/29 07:38:10;;;;;;;3.25;1.00;;;15.10;95.00;;;;;;5073023;28;20095;-76
2021/09/29 07:40:36;;;;;;;3.70;1.27;;;15.20;94.90;;;;;;5073457;28;20122;-76
2021/09/29 07:43:02;;;;;;;3.45;1.23;;;15.30;94.70;;;;;;5072737;28;20021;-80
2021/09/29 07:45:29;;;;;;;1.77;0.80;;;15.30;94.70;;;;;;5073441;28;20063;-76
2021/09/29 07:47:55;;;;;;;4.63;1.17;;;15.30;94.70;;;;;;5073395;28;20170;-76
2021/09/29 07:50:21;;;;;;;3.00;1.00;;;15.40;94.60;;;;;;5072685;28;20024;-76
2021/09/29 07:52:48;;;;;;;3.20;1.10;;;15.50;94.40;;;;;;5073049;28;20032;-77
2021/09/29 07:55:15;;;;;;;3.40;1.38;;;15.50;94.30;;;;;;5072772;28;20119;-76
2021/09/29 07:57:43;;;;;;;3.63;0.80;;;15.60;94.10;;;;;;5073882;28;20051;-76
2021/09/29 08:00:09;;;;;;;4.55;1.10;;;15.60;93.70;;;;;;5072561;28;20024;-76
2021/09/29 08:02:35;;;;;;;3.25;0.77;;;15.70;93.70;;;;;;5074186;28;20016;-77
2021/09/29 08:05:03;;;;;;;6.40;1.10;;;15.80;93.40;;;;;;5072844;28;20140;-76
2021/09/29 08:07:29;;;;;;;1.83;0.98;;;16.00;93.00;;;;;;5074201;28;20514;-77
2021/09/29 08:09:55;;;;;;;3.03;0.80;;;16.10;92.70;;;;;;5073322;28;20032;-77
2021/09/29 08:12:21;;;;;;;3.25;0.90;;;16.30;92.40;;;;;;5073466;28;20032;-77
2021/09/29 08:14:47;;;;;;;1.95;0.63;;;16.30;92.40;;;;;;5073661;28;20032;-77
2021/09/29 08:17:12;;;;;;;4.00;0.80;;;16.40;92.00;;;;;;5072991;28;20472;-77
2021/09/29 08:19:38;;;;;;;2.00;1.00;;;16.40;92.10;;;;;;5072666;28;20419;-77
2021/09/29 08:22:07;;;;;;;1.67;0.60;;;16.50;91.70;;;;;;5072613;28;20032;-80
2021/09/29 08:24:38;;;;;;;2.75;0.90;;;16.50;91.60;;;;;;5073534;28;20442;-77
2021/09/29 08:27:10;;;;;;;2.58;0.70;;;16.50;91.30;;;;;;5073640;28;20029;-80
2021/09/29 08:29:47;;;;;;;5.05;1.40;;;16.60;91.30;;;;;;5073719;28;20060;-76
2021/09/29 08:39:53;;;;;;;3.70;0.80;;;16.90;91.00;;;;;;5073661;28;20055;-77
2021/09/29 08:48:06;;;;;;;3.05;0.70;;;17.10;90.30;;;;;;5057012;28;20036;-77
2021/09/29 08:50:53;;;;;;;3.10;0.70;;;17.10;90.40;;;;;;5073655;28;20047;-77
2021/09/29 09:17:26;;;;;;;5.22;0.85;;;17.40;90.00;;;;;;5072739;28;20029;-77
2021/09/29 09:19:52;;;;;;;2.10;0.80;;;17.50;88.10;;;;;;5073412;28;20138;-77
2021/09/29 09:22:18;;;;;;;3.17;0.60;;;17.50;88.10;;;;;;5072321;28;20393;-76
2021/09/29 09:24:52;;;;;;;4.13;0.80;;;17.50;88.70;;;;;;5072980;28;20064;-76
2021/09/29 09:27:18;;;;;;;1.33;0.50;;;17.50;88.50;;;;;;5072567;28;20583;-77
2021/09/29 09:29:45;;;;;;;3.78;0.90;;;17.50;88.20;;;;;;5073028;28;20031;-77
2021/09/29 09:32:13;;;;;;;5.75;0.70;;;17.50;87.70;;;;;;5088095;28;20082;-78
2021/09/29 09:34:39;;;;;;;4.25;0.80;;;17.50;88.00;;;;;;5071822;28;20367;-77
2021/09/29 09:37:10;;;;;;;7.78;0.98;;;17.40;87.50;;;;;;5088557;28;20035;-77
2021/09/29 09:39:37;;;;;;;3.25;0.82;;;17.50;87.50;;;;;;5072036;28;20028;-77
2021/09/29 09:42:03;;;;;;;2.95;0.70;;;17.50;88.60;;;;;;5075804;28;20119;-77
2021/09/29 09:44:35;;;;;;;6.88;0.65;;;17.40;89.20;;;;;;5076306;28;20035;-77
2021/09/29 09:47:09;;;;;;;3.25;0.68;;;17.50;89.00;;;;;;5077064;28;20039;-76
2021/09/29 09:49:53;;;;;;;2.17;0.80;;;17.50;89.60;;;;;;5076580;28;20036;-76
2021/09/29 09:52:32;;;;;;;3.55;0.60;;;17.60;89.40;;;;;;5075039;28;20028;-77
2021/09/29 09:55:12;;;;;;;3.53;0.63;;;17.60;88.50;;;;;;5075523;28;20477;-77
2021/09/29 09:57:42;;;;;;;3.70;0.57;;;17.50;89.80;;;;;;5075164;28;20127;-77
2021/09/29 10:00:15;;;;;;;3.92;0.90;;;17.50;90.40;;;;;;5074828;28;20032;-76
2021/09/29 10:02:46;;;;;;;8.43;0.80;;;17.50;90.50;;;;;;5076200;28;20350;-76
2021/09/29 10:05:16;;;;;;;3.23;0.40;;;17.50;89.40;;;;;;5075740;28;20040;-77
2021/09/29 10:07:45;;;;;;;5.30;0.60;;;17.50;89.50;;;;;;5075582;28;20021;-76
2021/09/29 10:27:08;;;;;;;2.80;0.70;;;18.20;85.70;;;;;;5076190;28;20032;-77
2021/09/29 10:29:43;;;;;;;1.80;0.50;;;18.10;84.80;;;;;;5075205;28;20412;-77
2021/09/29 10:32:27;;;;;;;0.77;0.60;;;18.00;85.00;;;;;;5075725;28;20021;-77
2021/09/29 10:37:57;;;;;;;3.78;0.47;;;17.90;85.60;;;;;;5075927;28;20029;-77
2021/09/29 10:41:10;;;;;;;3.33;0.43;;;17.80;84.40;;;;;;5075283;28;20024;-77
2021/09/29 10:46:31;;;;;;;5.75;0.73;;;17.90;84.60;;;;;;5071793;28;20397;-77
2021/09/29 10:49:29;;;;;;;3.70;0.55;;;18.00;82.60;;;;;;5075482;28;20029;-77
2021/09/29 11:31:03;;;;;;;4.13;0.65;;;18.30;85.60;;;;;;5074362;28;20032;-77
2021/09/29 12:12:20;;;;;;;1.80;0.45;;;17.00;96.70;;;;;;5073689;28;20036;-77
2021/09/29 12:14:48;;;;;;;1.30;0.50;;;17.40;95.50;;;;;;5073629;28;20024;-76
2021/09/29 12:17:26;;;;;;;1.60;0.63;;;17.90;95.00;;;;;;5072410;28;20028;-76
2021/09/29 12:20:09;;;;;;;1.85;0.50;;;18.00;95.20;;;;;;5072448;28;20519;-76
2021/09/29 12:22:41;;;;;;;2.17;0.52;;;17.90;94.70;;;;;;5073109;28;20043;-77
2021/09/29 12:25:11;;;;;;;2.97;0.55;;;18.00;95.00;;;;;;5072163;28;20040;-77
2021/09/29 12:27:51;;;;;;;4.25;0.57;;;17.90;94.50;;;;;;5071622;28;20060;-77
2021/09/29 12:30:38;;;;;;;5.43;0.70;;;17.70;95.00;;;;;;5072376;28;20086;-76
2021/09/29 12:38:05;;;;;;;5.60;0.70;;;17.20;96.20;;;;;;5073268;28;20025;-77
2021/09/29 12:40:33;;;;;;;3.03;0.82;;;17.10;96.80;;;;;;5071516;28;20021;-76
2021/09/29 12:43:21;;;;;;;4.78;0.57;;;16.90;96.90;;;;;;5073212;28;20107;-77
2021/09/29 12:45:49;;;;;;;1.58;0.60;;;16.70;98.80;;;;;;5072321;28;20032;-77
2021/09/29 12:48:21;;;;;;;3.30;0.63;;;16.40;98.00;;;;;;5072253;28;20033;-77
2021/09/29 12:50:56;;;;;;;2.53;0.70;;;16.00;98.70;;;;;;5072389;28;20496;-76
2021/09/29 12:53:31;;;;;;;2.22;0.30;;;15.70;99.10;;;;;;5071768;28;20020;-78
2021/09/29 12:56:02;;;;;;;2.53;0.28;;;15.50;98.50;;;;;;5072960;28;20053;-78
2021/09/29 12:58:28;;;;;;;0.35;0.17;;;15.40;98.90;;;;;;5071677;28;20025;-78
2021/09/29 13:00:55;;;;;;;3.58;0.35;;;15.30;98.20;;;;;;5072164;28;20024;-78
2021/09/29 13:03:21;;;;;;;1.02;0.30;;;15.20;98.20;;;;;;5072899;28;20458;-81
2021/09/29 13:05:48;;;;;;;2.65;0.35;;;15.20;98.90;;;;;;5072125;28;20043;-78
2021/09/29 13:08:14;;;;;;;0.90;0.28;;;15.20;98.40;;;;;;5072090;28;20031;-78
2021/09/29 13:10:39;;;;;;;1.55;0.20;;;15.10;98.80;;;;;;5071687;28;20024;-77
2021/09/29 13:13:06;;;;;;;0.75;0.20;;;15.00;98.10;;;;;;5072094;28;20031;-77
2021/09/29 13:15:32;;;;;;;2.13;0.50;;;15.10;98.50;;;;;;5075038;28;20033;-78
2021/09/29 13:17:59;;;;;;;2.00;0.25;;;15.00;98.00;;;;;;5076228;28;20125;-77
2021/09/29 13:20:27;;;;;;;0.63;0.22;;;15.10;98.10;;;;;;5075639;28;20021;-77
2021/09/29 13:22:58;;;;;;;0.65;0.13;;;15.00;98.10;;;;;;5076136;28;20035;-78
2021/09/29 13:38:55;;;;;;;0.40;0.10;;;14.90;97.00;;;;;;5076482;28;20036;-77
2021/09/29 13:41:21;;;;;;;0.63;0.20;;;14.90;97.00;;;;;;5075771;28;20462;-77
2021/09/29 13:43:47;;;;;;;1.10;0.20;;;14.90;97.60;;;;;;5074913;28;20086;-78
2021/09/29 13:46:12;;;;;;;0.30;0.10;;;14.90;97.20;;;;;;5075486;28;20032;-77
2021/09/29 13:48:38;;;;;;;0.43;0.10;;;14.90;97.30;;;;;;5076125;28;20498;-77
2021/09/29 13:51:04;;;;;;;3.50;0.20;;;14.80;97.30;;;;;;5075324;28;20024;-77
2021/09/29 13:53:30;;;;;;;1.75;0.20;;;14.80;97.50;;;;;;5075806;28;20358;-77
2021/09/29 13:55:58;;;;;;;0.50;0.20;;;14.70;97.30;;;;;;5074938;28;20091;-77
2021/09/29 13:58:44;;;;;;;2.70;0.30;;;14.70;97.40;;;;;;5091858;28;20028;-81
2021/09/29 14:28:43;;;;;;;1.25;0.28;;;15.30;97.30;;;;;;5088573;28;20040;-77
2021/09/29 14:31:15;;;;;;;0.35;0.20;;;15.30;97.40;;;;;;5074947;28;20076;-76
2021/09/29 14:33:46;;;;;;;;;;;15.50;97.80;;;;;;5074187;28;20075;-77
2021/09/29 14:36:11;;;;;;;0.57;0.30;;;15.60;97.60;;;;;;5074620;28;19905;-77
2021/09/29 14:38:37;;;;;;;1.00;0.40;;;15.70;97.60;;;;;;5074022;28;20035;-77
2021/09/29 14:41:03;;;;;;;2.35;0.30;;;15.60;97.60;;;;;;5074353;28;20051;-77
2021/09/29 14:43:28;;;;;;;1.23;0.30;;;15.60;97.70;;;;;;5075112;28;20413;-78
2021/09/29 14:45:54;;;;;;;1.13;0.40;;;15.50;98.00;;;;;;5074438;28;20072;-77
2021/09/29 14:48:20;;;;;;;1.02;0.40;;;15.40;98.20;;;;;;5074095;28;20024;-76
2021/09/29 14:50:50;;;;;;;1.95;0.50;;;15.40;98.30;;;;;;5073727;28;20028;-77
2021/09/29 14:53:15;;;;;;;2.95;0.50;;;15.40;98.50;;;;;;5074198;28;20020;-77
2021/09/29 14:55:41;;;;;;;0.68;0.30;;;15.40;98.20;;;;;;5074386;28;20025;-77
2021/09/29 14:58:08;;;;;;;2.65;0.40;;;15.40;98.20;;;;;;5074072;28;20024;-76
2021/09/29 15:00:34;;;;;;;2.45;0.47;;;15.30;98.40;;;;;;5074538;28;20021;-77
2021/09/29 15:03:00;;;;;;;2.35;0.40;;;15.30;98.30;;;;;;5074880;28;20033;-77
2021/09/29 15:05:27;;;;;;;1.95;0.60;;;15.30;98.30;;;;;;5073656;28;20078;-77
2021/09/29 15:07:53;;;;;;;2.75;0.50;;;15.30;98.40;;;;;;5074730;28;20027;-76
2021/09/29 15:10:19;;;;;;;0.63;0.30;;;15.30;98.50;;;;;;5073727;28;20029;-75
2021/09/29 15:12:45;;;;;;;1.48;0.35;;;15.30;98.40;;;;;;5073014;28;20127;-76
2021/09/29 15:18:05;;;;;;;0.40;0.20;;;15.40;97.90;;;;;;5074417;28;20111;-76
2021/09/29 15:29:00;;;;;;;0.20;0.15;;;15.60;97.10;;;;;;5074199;28;20056;-76
2021/09/29 15:47:41;;;;;;;0.63;0.47;;;15.90;96.30;;;;;;5074374;28;20043;-77
2021/09/29 15:50:18;;;;;;;0.90;0.40;;;15.90;96.10;;;;;;5073694;28;20028;-77
2021/09/29 16:00:49;;;;;;;1.35;0.30;;;15.80;96.50;;;;;;5074064;28;20024;-77
2021/09/29 16:32:04;;;;;;;1.13;0.20;;;15.70;95.20;;;;;;5073026;28;20035;-77
2021/09/29 16:34:45;;;;;;;0.20;0.17;;;15.60;95.00;;;;;;5072119;28;20039;-77
2021/09/29 16:37:11;;;;;;;0.63;0.13;;;15.60;95.10;;;;;;5073978;28;20056;-76
2021/09/29 16:39:37;;;;;;;1.48;0.30;;;15.60;94.30;;;;;;5073144;28;20085;-77
2021/09/29 16:42:03;;;;;;;0.75;0.20;;;15.60;94.40;;;;;;5073570;28;20104;-77
2021/09/29 16:44:29;;;;;;;1.10;0.20;;;15.60;94.40;;;;;;5072494;28;20024;-77
2021/09/29 16:46:56;;;;;;;1.35;0.22;;;15.50;94.30;;;;;;5072696;28;20055;-76
2021/09/29 16:49:27;;;;;;;0.60;0.22;;;15.50;94.30;;;;;;5073175;28;20020;-77
2021/09/29 16:54:38;;;;;;;0.50;0.20;;;15.40;94.40;;;;;;5072809;28;20052;-77
2021/09/29 16:57:12;;;;;;;0.73;0.40;;;15.30;94.60;;;;;;5072201;28;20481;-77
2021/09/29 17:00:06;;;;;;;1.13;0.30;;;15.30;94.70;;;;;;5071736;28;20033;-77
2021/09/29 17:02:26;;;;;;;1.25;0.38;;;15.30;94.80;;;;;;5072559;28;20103;-77